Online since October of 2007


Active alerts


No alerts

Bigbaywx more information Bigbaywx


mount mesnard more information Mount Mesnard


visit our other weather sites:

Template documentation
and downloads

And another site


CBI


nearby metar reports

   
KSAW - Sawyer, Michigan
updated: May 21 2019 8:50 pm
clear  
clear  
   wind: ene 9.2 mph
wind: ene 9.2 mph
temperature: 57.2°F
dew point: 28.4°F
humidity: 33%
barometer: 30.11 inHg
clouds: clear
visibility: 10 mi
cloud details: clear
KSAW 220050Z 06008KT 10SM SKC 14/M02 A3011
KESC - Escanaba, Michigan
updated: May 21 2019 8:56 pm
clear  
clear  
   wind: east 5.8 mph
wind: east 5.8 mph
temperature: 57.2°F
dew point: 37.4°F
humidity: 48%
barometer: 30.09 inHg
clouds: clear
visibility: 10 mi
cloud details: clear
KESC 220056Z AUTO 08005KT 10SM CLR 14/03 A3009 RMK AO2 SLP194 T01390028
KIMT - Iron Mountain, MI
updated: May 21 2019 8:54 pm
clear  
clear  
   wind: east 8.1 mph
wind: east 8.1 mph
temperature: 57.2°F
dew point: 28.4°F
humidity: 33%
barometer: 30.06 inHg
clouds: clear
visibility: 10 mi
cloud details: clear
KIMT 220054Z AUTO 09007KT 10SM CLR 14/M02 A3006 RMK AO2 SLP184 T01441022
KGRB - Green Bay, WI
updated: May 21 2019 8:53 pm
overcast  
overcast  
   wind: east 6.9 mph
wind: east 6.9 mph
temperature: 55.4°F
dew point: 37.4°F
humidity: 51%
barometer: 30.06 inHg
clouds: overcast
visibility: 10 mi
cloud details: overcast 3048 m
KGRB 220053Z 09006KT 10SM OVC100 13/03 A3006 RMK AO2 SLP183 T01330028
KDET - Detroit, MI
updated: May 21 2019 8:53 pm
partly cloudy  
partly cloudy  
   wind: ene 8.1 mph
wind: ene 8.1 mph
temperature: 55.4°F
dew point: 35.6°F
humidity: 47%
barometer: 30.16 inHg
clouds: partly cloudy
visibility: 10 mi
cloud details: partly cloudy 3353 m
KDET 220053Z 07007KT 10SM SCT110 13/02 A3016 RMK AO2 SLP214 T01330022
 

script developed by  Saratoga-weather.org adapted for the template by  Weerstation Leuven

you find our weather info also at:

Weather Underground

midwestern weather network

WeatherlinkIP

Citizen Weather Observer Program (CWOP)

equipment we use:

weather-station
Davis VP2

weather-program
Davis Weatherlink.Com

Davis VP2

Davis Weatherlink.Com